• Join FlightAware (Why Join?)
  • Login
  • US Flag 
 
06:08AM EST


 

Airport Tracker/Info


-or-


 

Live Flight TrackerFlight Track Log ✈ EJA982 ✈ 04-May-2013 ✈ KHOU - KGPT

Flight Track Log - Related Links

Times and Time Zones

All times are in EDT time to prevent confusion due to time zone crossing. See the EJA982 flight status page for this flight to view local times or setup timezone preferences in your user account.

Time Position Orientation Groundspeed Altitude Reporting Facility
EDT Latitude Longitude Course Direction KTS MPH feet Rate Location/Type
04:35PM 29.6603 -95.2861 297° West 179 206 900  Level Houston Center
04:36PM 29.6736 -95.3158 297° West 198 228 3,600 3,240 Climbing Houston Center
04:37PM 29.6606 -95.3344 231° Southwest 229 264 4,600 3,180 Climbing Houston Center
04:37PM 29.6083 -95.3597 203° Southwest 276 318 7,200 4,200 Climbing Houston Center
04:38PM 29.5778 -95.3694 195° South 269 310 9,000 4,560 Climbing Houston Center
04:38PM 29.5364 -95.3539 162° South 337 388 11,400 3,240 Climbing Houston Center
04:39PM 29.5119 -95.3047 120° Southeast 356 410 12,400 2,280 Climbing Houston Center
04:40PM 29.5481 -95.1925 70° East 396 456 15,000 2,580 Climbing Houston Center
04:41PM 29.5808 -95.0397 76° East 424 488 17,700 2,280 Climbing Houston Center
04:42PM 29.6083 -94.9042 77° East 437 503 19,800 1,980 Climbing Houston Center
04:43PM 29.6369 -94.7597 77° East 458 527 21,800 1,740 Climbing Houston Center
04:44PM 29.6664 -94.6108 77° East 475 547 23,500 1,740 Climbing Houston Center
04:45PM 29.6978 -94.4581 77° East 490 564 25,400 1,740 Climbing Houston Center
04:46PM 29.7242 -94.2986 79° East 504 580 27,100 1,620 Climbing Houston Center
04:47PM 29.7322 -94.1056 87° East 527 606 28,800 1,500 Climbing Houston Center
04:48PM 29.7381 -93.9350 88° East 534 615 30,200 1,500 Climbing Houston Center
04:49PM 29.7461 -93.7608 87° East 544 626 31,900 1,860 Climbing Houston Center
04:50PM 29.7533 -93.5869 87° East 548 631 34,100 2,460 Climbing Houston Center
04:51PM 29.7606 -93.3831 88° East 539 620 37,000 2,220 Climbing Houston Center
04:52PM 29.7667 -93.2119 88° East 540 621 38,700 960 Climbing Houston Center
04:53PM 29.7725 -93.0336 88° East 560 644 39,000 120 Climbing Houston Center
04:54PM 29.7794 -92.8444 88° East 591 680 39,000  Level Houston Center
04:55PM 29.7864 -92.6500 88° East 608 700 39,000  Level Houston Center
04:56PM 29.7944 -92.4200 88° East 604 695 39,000  Level Houston Center
04:57PM 29.8008 -92.2269 88° East 604 695 39,000  Level Houston Center
04:58PM 29.8061 -92.0339 88° East 605 696 39,000  Level Houston Center
04:59PM 29.8114 -91.8414 88° East 604 695 39,000 -360 Level Houston Center
05:00PM 29.8183 -91.6367 88° East 602 693 38,300 -1,320 Descending Houston Center
05:01PM 29.8233 -91.4478 88° East 594 684 36,300 -1,980 Descending Houston Center
05:02PM 29.8272 -91.2614 89° East 585 673 34,300 -1,980 Descending Houston Center
05:03PM 29.8308 -91.0753 89° East 584 672 32,300 -2,160 Descending Houston Center
05:04PM 29.8367 -90.8525 88° East 582 670 29,900 -2,220 Descending Houston Center
05:05PM 29.8403 -90.6656 89° East 587 676 27,800 -2,100 Descending Houston Center
05:07PM 29.8433 -90.4839 89° East 575 662 25,600 -2,160 Descending Houston Center
05:08PM 29.8450 -90.3139 89° East 541 623 23,400 -2,220 Descending Houston Center
05:09PM 29.8481 -90.1522 89° East 512 589 21,100 -2,340 Descending Houston Center
05:10PM 29.8511 -89.9972 89° East 493 567 18,600 -2,700 Descending Houston Center
05:11PM 29.9294 -89.8683 55° Northeast 427 491 15,600 -3,180 Descending Houston Center
05:12PM 30.0019 -89.7508 55° Northeast 462 532 12,100 -2,280 Descending Houston Center
05:13PM 30.0686 -89.6386 56° Northeast 440 506 11,000 -540 Descending Houston Center
05:14PM 30.1300 -89.5364 55° Northeast 413 475 11,000 -1,020 Level Houston Center
05:15PM 30.1772 -89.4442 59° Northeast 363 418 8,900 -2,040 Descending Houston Center
05:16PM 30.2183 -89.3328 67° East 325 374 6,800 -1,980 Descending Houston Center
05:17PM 30.2422 -89.2467 72° East 291 335 4,900 -1,680 Descending Houston Center
05:18PM 30.2717 -89.1669 67° East 277 319 3,400 -1,320 Descending Houston Center
05:19PM 30.3011 -89.0953 65° Northeast 256 295 2,200 -900 Descending Houston Center
05:20PM 30.3331 -89.0403 56° Northeast 218 251 1,600 -660 Descending Houston Center
05:21PM 30.3811 -89.0381 North 188 216 900 -720 Descending Houston Center
05:23PM 30.4000 -89.0667 49° Northeast  Level FlightAware Approximate
05:30PM 30.4073 -89.0701 49° Northeast  Level Estimated